createdAt,value
2022-08-12T00:01:05.437Z,0
2022-08-12T00:02:11.804Z,0
2022-08-12T00:03:18.171Z,0
2022-08-12T00:04:24.541Z,0
2022-08-12T00:05:30.909Z,0
2022-08-12T00:06:37.282Z,0
2022-08-12T00:07:43.600Z,0
2022-08-12T00:08:49.925Z,0
2022-08-12T00:09:56.239Z,0
2022-08-12T00:11:02.554Z,0
2022-08-12T00:12:08.877Z,0
2022-08-12T00:14:21.515Z,0
2022-08-12T00:15:27.909Z,0
2022-08-12T00:16:34.295Z,0
2022-08-12T00:17:40.677Z,0
2022-08-12T00:18:47.054Z,0
2022-08-12T00:19:53.434Z,0
2022-08-12T00:20:59.808Z,0
2022-08-12T00:22:06.187Z,0
2022-08-12T00:23:12.561Z,0
2022-08-12T00:24:18.947Z,0
2022-08-12T00:25:25.325Z,0
2022-08-12T00:26:31.699Z,0
2022-08-12T00:27:38.084Z,0
2022-08-12T00:28:44.457Z,0
2022-08-12T00:29:50.974Z,0
2022-08-12T00:30:57.478Z,0
2022-08-12T00:32:03.980Z,0
2022-08-12T00:33:10.480Z,0
2022-08-12T00:34:16.978Z,0
2022-08-12T00:35:23.475Z,0
2022-08-12T00:36:29.981Z,0
2022-08-12T00:37:36.479Z,0
2022-08-12T00:38:42.975Z,0
2022-08-12T00:39:49.466Z,0
2022-08-12T00:40:55.970Z,0
2022-08-12T00:42:02.471Z,0
2022-08-12T00:43:08.964Z,0
2022-08-12T00:45:48.563Z,0
2022-08-12T00:46:55.295Z,0
2022-08-12T00:48:02.035Z,0
2022-08-12T00:49:08.780Z,0
2022-08-12T00:50:15.511Z,0
2022-08-12T00:51:22.253Z,0
2022-08-12T00:52:28.998Z,0
2022-08-12T00:53:35.735Z,0
2022-08-12T00:54:42.468Z,0
2022-08-12T00:55:49.209Z,0
2022-08-12T00:56:55.959Z,0
2022-08-12T00:58:02.691Z,0
2022-08-12T00:59:09.442Z,0
2022-08-12T01:02:27.550Z,0
2022-08-12T01:04:06.283Z,0
2022-08-12T01:05:13.507Z,0
2022-08-12T01:06:20.733Z,0
2022-08-12T01:07:59.470Z,0
2022-08-12T01:09:38.194Z,0
2022-08-12T01:11:16.931Z,0
2022-08-12T01:12:55.673Z,0
2022-08-12T01:14:34.403Z,0
2022-08-12T01:16:13.136Z,0
2022-08-12T01:17:51.878Z,0
2022-08-12T01:19:30.617Z,0
2022-08-12T01:21:09.349Z,0
2022-08-12T01:22:49.094Z,0
2022-08-12T01:26:04.664Z,0
2022-08-12T01:27:11.039Z,0
2022-08-12T01:28:17.425Z,0
2022-08-12T01:29:23.809Z,0
2022-08-12T01:30:30.169Z,0
2022-08-12T01:31:36.559Z,0
2022-08-12T01:32:42.934Z,0
2022-08-12T01:33:49.316Z,0
2022-08-12T01:34:55.701Z,0
2022-08-12T01:36:02.081Z,0
2022-08-12T01:37:08.455Z,0
2022-08-12T01:38:14.838Z,0
2022-08-12T01:39:21.219Z,0
2022-08-12T01:40:27.593Z,0
2022-08-12T01:41:33.968Z,0
2022-08-12T01:42:40.344Z,0
2022-08-12T01:43:46.712Z,0
2022-08-12T01:44:53.107Z,0
2022-08-12T01:45:59.488Z,0
2022-08-12T01:47:05.865Z,0
2022-08-12T01:48:12.253Z,0
2022-08-12T01:49:18.637Z,0
2022-08-12T01:50:25.026Z,0
2022-08-12T01:51:31.403Z,0
2022-08-12T01:52:37.786Z,0
2022-08-12T01:53:44.318Z,0
2022-08-12T01:55:57.316Z,0
2022-08-12T01:57:03.811Z,0
2022-08-12T01:58:10.297Z,0
2022-08-12T01:59:16.786Z,0
2022-08-12T02:00:23.291Z,0
2022-08-12T02:01:29.784Z,0
2022-08-12T02:02:36.281Z,0
2022-08-12T02:03:42.781Z,0
2022-08-12T02:04:49.293Z,0
2022-08-12T02:05:55.794Z,0
2022-08-12T02:07:02.274Z,0
2022-08-12T02:08:51.555Z,0
2022-08-12T02:09:58.292Z,0
2022-08-12T02:11:05.017Z,0
2022-08-12T02:12:11.748Z,0
2022-08-12T02:13:18.480Z,0
2022-08-12T02:14:25.218Z,0
2022-08-12T02:15:31.942Z,0
2022-08-12T02:16:38.672Z,0
2022-08-12T02:17:45.412Z,0
2022-08-12T02:18:52.141Z,0
2022-08-12T02:19:58.877Z,0
2022-08-12T02:21:05.610Z,0
2022-08-12T02:22:12.333Z,0
2022-08-12T02:25:30.539Z,0
2022-08-12T02:27:09.262Z,0
2022-08-12T02:28:16.476Z,0
2022-08-12T02:29:23.678Z,0
2022-08-12T02:31:02.411Z,0
2022-08-12T02:32:41.115Z,0
2022-08-12T02:34:19.829Z,0
2022-08-12T02:35:58.551Z,0
2022-08-12T02:37:37.269Z,0
2022-08-12T02:39:15.993Z,0
2022-08-12T02:40:54.724Z,0
2022-08-12T02:42:33.448Z,0
2022-08-12T02:44:12.184Z,0
2022-08-12T02:45:51.901Z,0
2022-08-12T02:49:09.364Z,0
2022-08-12T02:52:24.911Z,0
2022-08-12T02:53:31.283Z,0
2022-08-12T02:54:37.667Z,0
2022-08-12T02:55:44.040Z,0
2022-08-12T02:56:50.413Z,0
2022-08-12T02:57:56.794Z,0
2022-08-12T02:59:03.174Z,0
2022-08-12T03:00:09.558Z,0
2022-08-12T03:01:15.937Z,0
2022-08-12T03:02:22.325Z,0
2022-08-12T03:03:28.706Z,0
2022-08-12T03:04:35.089Z,0
2022-08-12T03:05:41.476Z,0
2022-08-12T03:06:47.856Z,0
2022-08-12T03:07:54.235Z,0
2022-08-12T03:09:00.615Z,0
2022-08-12T03:10:07.001Z,0
2022-08-12T03:11:13.379Z,0
2022-08-12T03:12:19.778Z,0
2022-08-12T03:13:26.145Z,0
2022-08-12T03:14:32.539Z,0
2022-08-12T03:15:38.907Z,0
2022-08-12T03:16:45.302Z,0
2022-08-12T03:17:51.676Z,0
2022-08-12T03:18:58.064Z,0
2022-08-12T03:20:04.574Z,0
2022-08-12T03:21:11.083Z,0
2022-08-12T03:22:17.578Z,0
2022-08-12T03:23:24.077Z,0
2022-08-12T03:24:30.593Z,0
2022-08-12T03:25:37.114Z,0
2022-08-12T03:26:43.592Z,0
2022-08-12T03:27:50.087Z,0
2022-08-12T03:28:56.591Z,0
2022-08-12T03:30:03.095Z,0
2022-08-12T03:31:09.590Z,0
2022-08-12T03:32:16.103Z,0
2022-08-12T03:33:22.597Z,0
2022-08-12T03:35:11.900Z,0
2022-08-12T03:36:18.646Z,0
2022-08-12T03:37:25.413Z,0
2022-08-12T03:38:32.136Z,0
2022-08-12T03:39:38.876Z,0
2022-08-12T03:40:45.622Z,0
2022-08-12T03:41:52.367Z,0
2022-08-12T03:42:59.106Z,0
2022-08-12T03:44:05.849Z,0
2022-08-12T03:45:12.583Z,0
2022-08-12T03:46:19.336Z,0
2022-08-12T03:47:26.060Z,0
2022-08-12T03:48:32.807Z,0
2022-08-12T03:51:50.955Z,0
2022-08-12T03:53:29.702Z,0
2022-08-12T03:54:36.914Z,0
2022-08-12T03:55:44.137Z,0
2022-08-12T03:57:22.881Z,0
2022-08-12T03:59:01.580Z,5
2022-08-12T04:00:40.304Z,5
2022-08-12T04:02:19.020Z,5
2022-08-12T04:03:57.724Z,5
2022-08-12T04:05:36.441Z,5
2022-08-12T04:07:15.203Z,11
2022-08-12T04:08:53.901Z,11
2022-08-12T04:10:32.595Z,11
2022-08-12T04:12:12.314Z,16
2022-08-12T04:15:27.857Z,16
2022-08-12T04:16:34.268Z,22
2022-08-12T04:17:40.677Z,22
2022-08-12T04:18:47.100Z,28
2022-08-12T04:19:53.521Z,28
2022-08-12T04:20:59.933Z,28
2022-08-12T04:22:06.365Z,33
2022-08-12T04:23:12.783Z,33
2022-08-12T04:24:19.207Z,39
2022-08-12T04:25:25.625Z,39
2022-08-12T04:26:32.038Z,39
2022-08-12T04:27:38.456Z,39
2022-08-12T04:28:44.859Z,45
2022-08-12T04:29:51.266Z,45
2022-08-12T04:30:57.692Z,50
2022-08-12T04:32:04.112Z,50
2022-08-12T04:33:10.527Z,50
2022-08-12T04:34:16.964Z,56
2022-08-12T04:35:23.383Z,56
2022-08-12T04:36:29.788Z,61
2022-08-12T04:37:36.200Z,61
2022-08-12T04:38:42.623Z,67
2022-08-12T04:39:49.036Z,67
2022-08-12T04:40:55.440Z,67
2022-08-12T04:42:01.861Z,73
2022-08-12T04:43:08.350Z,73
2022-08-12T04:44:14.899Z,73
2022-08-12T04:45:21.434Z,78
2022-08-12T04:46:27.972Z,78
2022-08-12T04:47:34.512Z,84
2022-08-12T04:48:41.055Z,84
2022-08-12T04:50:54.110Z,90
2022-08-12T04:52:00.638Z,90
2022-08-12T04:53:07.154Z,95
2022-08-12T04:54:13.684Z,95
2022-08-12T04:55:20.223Z,95
2022-08-12T04:56:26.776Z,101
2022-08-12T04:58:16.127Z,101
2022-08-12T04:59:22.906Z,106
2022-08-12T05:00:29.697Z,106
2022-08-12T05:01:36.466Z,112
2022-08-12T05:02:43.255Z,112
2022-08-12T05:03:50.023Z,112
2022-08-12T05:04:56.801Z,118
2022-08-12T05:06:03.579Z,118
2022-08-12T05:07:10.357Z,118
2022-08-12T05:08:17.144Z,123
2022-08-12T05:09:23.934Z,123
2022-08-12T05:10:30.726Z,129
2022-08-12T05:11:37.514Z,129
2022-08-12T05:14:55.671Z,135
2022-08-12T05:16:34.397Z,140
2022-08-12T05:17:41.662Z,140
2022-08-12T05:18:48.922Z,140
2022-08-12T05:20:27.656Z,140
2022-08-12T05:22:06.396Z,140
2022-08-12T05:23:45.126Z,146
2022-08-12T05:25:23.854Z,146
2022-08-12T05:27:02.580Z,146
2022-08-12T05:28:41.321Z,151
2022-08-12T05:30:20.053Z,151
2022-08-12T05:31:58.781Z,157
2022-08-12T05:33:37.519Z,157
2022-08-12T05:35:17.252Z,157
2022-08-12T05:38:32.934Z,163
2022-08-12T05:39:39.485Z,168
2022-08-12T05:40:46.029Z,168
2022-08-12T05:41:52.569Z,168
2022-08-12T05:42:59.111Z,174
2022-08-12T05:44:05.642Z,174
2022-08-12T05:45:12.171Z,174
2022-08-12T05:46:18.703Z,180
2022-08-12T05:47:25.229Z,180
2022-08-12T05:48:31.754Z,180
2022-08-12T05:49:38.279Z,185
2022-08-12T05:50:44.805Z,185
2022-08-12T05:51:51.332Z,185
2022-08-12T05:52:57.865Z,185
2022-08-12T05:54:04.407Z,191
2022-08-12T05:55:10.929Z,191
2022-08-12T05:56:17.488Z,191
2022-08-12T05:57:24.044Z,191
2022-08-12T05:58:30.600Z,196
2022-08-12T05:59:37.173Z,202
2022-08-12T06:00:43.711Z,196
2022-08-12T06:01:50.258Z,202
2022-08-12T06:02:56.796Z,202
2022-08-12T06:04:03.343Z,202
2022-08-12T06:05:09.894Z,202
2022-08-12T06:06:16.690Z,208
2022-08-12T06:07:23.483Z,213
2022-08-12T06:08:30.282Z,208
2022-08-12T06:09:37.062Z,208
2022-08-12T06:10:43.858Z,213
2022-08-12T06:11:50.656Z,213
2022-08-12T06:12:57.412Z,213
2022-08-12T06:14:04.225Z,219
2022-08-12T06:15:11.044Z,219
2022-08-12T06:16:17.836Z,219
2022-08-12T06:17:24.641Z,219
2022-08-12T06:18:31.436Z,225
2022-08-12T06:19:38.226Z,225
2022-08-12T06:22:16.976Z,225
2022-08-12T06:23:55.702Z,230
2022-08-12T06:25:34.423Z,236
2022-08-12T06:27:13.147Z,230
2022-08-12T06:28:20.434Z,236
2022-08-12T06:29:27.717Z,236
2022-08-12T06:31:06.449Z,236
2022-08-12T06:32:45.173Z,236
2022-08-12T06:34:23.903Z,241
2022-08-12T06:36:02.638Z,241
2022-08-12T06:37:41.375Z,241
2022-08-12T06:39:20.104Z,241
2022-08-12T06:40:58.856Z,241
2022-08-12T06:44:48.443Z,247
2022-08-12T06:45:56.695Z,247
2022-08-12T06:49:12.279Z,253
2022-08-12T06:50:18.696Z,258
2022-08-12T06:51:25.141Z,258
2022-08-12T06:52:31.577Z,264
2022-08-12T06:53:38.042Z,264
2022-08-12T06:54:44.458Z,264
2022-08-12T06:55:50.899Z,264
2022-08-12T06:56:57.337Z,264
2022-08-12T06:58:03.775Z,270
2022-08-12T06:59:10.206Z,270
2022-08-12T07:00:16.646Z,275
2022-08-12T07:01:23.083Z,270
2022-08-12T07:02:29.512Z,275
2022-08-12T07:03:35.962Z,275
2022-08-12T07:04:42.407Z,275
2022-08-12T07:05:48.843Z,275
2022-08-12T07:06:55.297Z,281
2022-08-12T07:08:01.730Z,281
2022-08-12T07:09:08.179Z,286
2022-08-12T07:10:14.629Z,281
2022-08-12T07:11:21.065Z,286
2022-08-12T07:12:27.512Z,286
2022-08-12T07:13:33.949Z,286
2022-08-12T07:14:40.380Z,286
2022-08-12T07:15:46.827Z,286
2022-08-12T07:16:53.388Z,292
2022-08-12T07:17:59.946Z,292
2022-08-12T07:19:06.525Z,292
2022-08-12T07:20:13.050Z,292
2022-08-12T07:21:19.614Z,298
2022-08-12T07:22:26.173Z,298
2022-08-12T07:23:32.723Z,298
2022-08-12T07:24:39.296Z,303
2022-08-12T07:25:45.854Z,303
2022-08-12T07:26:52.424Z,303
2022-08-12T07:27:58.978Z,309
2022-08-12T07:29:05.536Z,315
2022-08-12T07:30:12.094Z,315
2022-08-12T07:31:45.294Z,371
2022-08-12T07:32:52.101Z,1569
2022-08-12T07:33:58.845Z,1968
2022-08-12T07:35:05.590Z,2075
2022-08-12T07:36:12.347Z,2075
2022-08-12T07:37:19.097Z,2126
2022-08-12T07:38:25.851Z,2199
2022-08-12T07:39:32.627Z,2176
2022-08-12T07:40:39.404Z,2137
2022-08-12T07:41:46.155Z,2171
2022-08-12T07:42:52.913Z,2238
2022-08-12T07:43:59.679Z,2210
2022-08-12T07:45:06.437Z,2205
2022-08-12T07:48:24.551Z,2300
2022-08-12T07:50:03.308Z,2328
2022-08-12T07:51:42.041Z,2171
2022-08-12T07:52:49.277Z,2255
2022-08-12T07:53:56.532Z,2328
2022-08-12T07:55:35.261Z,2345
2022-08-12T07:57:14.005Z,2283
2022-08-12T07:58:52.747Z,2306
2022-08-12T08:00:31.500Z,2430
2022-08-12T08:02:10.232Z,2525
2022-08-12T08:03:49.005Z,2576
2022-08-12T08:05:27.729Z,2446
2022-08-12T08:07:06.479Z,2328
2022-08-12T08:09:17.300Z,2418
2022-08-12T08:11:12.775Z,2216
2022-08-12T08:12:19.302Z,2165
2022-08-12T08:13:25.817Z,2064
2022-08-12T08:14:32.343Z,1923
2022-08-12T08:15:38.862Z,1946
2022-08-12T08:16:45.375Z,2182
2022-08-12T08:17:51.896Z,2283
2022-08-12T08:18:58.426Z,2317
2022-08-12T08:20:04.933Z,2205
2022-08-12T08:21:11.445Z,2109
2022-08-12T08:22:17.958Z,2086
2022-08-12T08:23:24.460Z,2154
2022-08-12T08:24:30.985Z,2295
2022-08-12T08:25:37.502Z,2441
2022-08-12T08:26:44.022Z,2581
2022-08-12T08:27:50.539Z,2626
2022-08-12T08:28:57.048Z,2638
2022-08-12T08:30:03.565Z,2638
2022-08-12T08:31:10.079Z,2531
2022-08-12T08:32:16.593Z,2801
2022-08-12T08:33:23.112Z,2885
2022-08-12T08:34:29.632Z,2880
2022-08-12T08:35:36.140Z,2615
2022-08-12T08:36:42.653Z,2430
2022-08-12T08:37:49.162Z,2452
2022-08-12T08:38:55.919Z,2306
2022-08-12T08:40:02.687Z,2368
2022-08-12T08:41:09.447Z,2559
2022-08-12T08:42:16.206Z,2615
2022-08-12T08:43:22.970Z,2643
2022-08-12T08:44:29.735Z,2615
2022-08-12T08:45:36.499Z,2548
2022-08-12T08:46:43.256Z,2694
2022-08-12T08:47:50.014Z,2790
2022-08-12T08:48:56.783Z,2610
2022-08-12T08:50:03.548Z,2362
2022-08-12T08:51:10.303Z,2373
2022-08-12T08:52:17.077Z,2446
2022-08-12T08:54:56.214Z,2334
2022-08-12T08:56:34.965Z,2418
2022-08-12T08:58:13.726Z,2452
2022-08-12T08:59:52.491Z,2227
2022-08-12T09:00:59.729Z,2216
2022-08-12T09:02:06.960Z,2193
2022-08-12T09:03:45.713Z,2199
2022-08-12T09:05:24.463Z,2171
2022-08-12T09:07:03.249Z,1991
2022-08-12T09:08:41.982Z,1918
2022-08-12T09:10:20.729Z,1906
2022-08-12T09:11:59.470Z,2103
2022-08-12T09:13:38.250Z,2058
2022-08-12T09:17:27.735Z,1867
2022-08-12T09:18:34.282Z,1760
2022-08-12T09:19:40.796Z,1743
2022-08-12T09:20:47.323Z,1721
2022-08-12T09:21:53.871Z,1715
2022-08-12T09:23:00.399Z,1704
2022-08-12T09:24:06.896Z,1715
2022-08-12T09:25:13.396Z,1715
2022-08-12T09:26:19.925Z,1715
2022-08-12T09:27:26.450Z,1721
2022-08-12T09:28:33.010Z,1704
2022-08-12T09:29:39.479Z,1710
2022-08-12T09:30:46.034Z,1715
2022-08-12T09:31:52.544Z,1721
2022-08-12T09:32:59.322Z,1726
2022-08-12T09:34:05.572Z,1726
2022-08-12T09:35:12.110Z,1726
2022-08-12T09:36:18.617Z,1738
2022-08-12T09:37:25.174Z,1755
2022-08-12T09:38:31.680Z,1743
2022-08-12T09:39:38.193Z,1760
2022-08-12T09:40:44.753Z,1755
2022-08-12T09:41:51.245Z,1766
2022-08-12T09:42:57.794Z,1777
2022-08-12T09:44:04.290Z,1777
2022-08-12T09:45:10.824Z,1743
2022-08-12T09:46:17.603Z,1732
2022-08-12T09:47:24.346Z,1726
2022-08-12T09:48:31.117Z,1738
2022-08-12T09:49:37.901Z,1749
2022-08-12T09:50:44.646Z,1760
2022-08-12T09:51:51.466Z,1777
2022-08-12T09:53:03.800Z,1800
2022-08-12T09:54:04.957Z,1845
2022-08-12T09:55:11.759Z,1845
2022-08-12T09:56:18.493Z,1845
2022-08-12T09:57:25.251Z,1867
2022-08-12T09:58:32.000Z,1873
2022-08-12T09:59:38.761Z,1878
2022-08-12T10:02:18.865Z,1884
2022-08-12T10:03:57.613Z,1878
2022-08-12T10:05:36.379Z,1906
2022-08-12T10:07:15.116Z,1923
2022-08-12T10:08:22.394Z,1957
2022-08-12T10:09:29.626Z,1951
2022-08-12T10:11:08.363Z,1963
2022-08-12T10:12:47.141Z,1963
2022-08-12T10:14:25.868Z,1991
2022-08-12T10:16:04.620Z,2019
2022-08-12T10:17:43.357Z,2041
2022-08-12T10:19:22.137Z,2064
2022-08-12T10:21:00.900Z,2086
2022-08-12T10:24:50.405Z,2109
2022-08-12T10:25:56.847Z,2115
2022-08-12T10:27:03.218Z,2115
2022-08-12T10:28:09.614Z,2109
2022-08-12T10:29:16.028Z,2103
2022-08-12T10:30:22.404Z,2103
2022-08-12T10:31:28.809Z,2109
2022-08-12T10:32:35.207Z,2109
2022-08-12T10:33:41.624Z,2126
2022-08-12T10:34:47.995Z,2131
2022-08-12T10:35:54.391Z,2160
2022-08-12T10:37:00.806Z,2171
2022-08-12T10:38:07.204Z,2176
2022-08-12T10:39:13.593Z,2182
2022-08-12T10:40:20.020Z,2182
2022-08-12T10:41:26.401Z,2182
2022-08-12T10:42:32.817Z,2193
2022-08-12T10:43:39.190Z,2227
2022-08-12T10:44:45.578Z,2210
2022-08-12T10:45:52.009Z,2193
2022-08-12T10:46:58.379Z,2188
2022-08-12T10:48:04.775Z,2199
2022-08-12T10:49:11.176Z,2216
2022-08-12T10:50:17.601Z,2216
2022-08-12T10:51:23.984Z,2238
2022-08-12T10:52:30.386Z,2227
2022-08-12T10:53:36.913Z,2227
2022-08-12T10:54:43.467Z,2238
2022-08-12T10:55:49.967Z,2255
2022-08-12T10:56:56.513Z,2272
2022-08-12T10:58:03.009Z,2250
2022-08-12T10:59:09.526Z,2261
2022-08-12T11:00:16.041Z,2238
2022-08-12T11:01:22.551Z,2261
2022-08-12T11:02:29.069Z,2272
2022-08-12T11:03:35.598Z,2272
2022-08-12T11:04:42.102Z,2272
2022-08-12T11:05:48.648Z,2289
2022-08-12T11:06:55.147Z,2311
2022-08-12T11:08:44.533Z,2323
2022-08-12T11:09:51.277Z,2306
2022-08-12T11:10:58.052Z,2311
2022-08-12T11:12:04.790Z,2351
2022-08-12T11:13:11.543Z,2356
2022-08-12T11:14:18.320Z,2340
2022-08-12T11:15:25.075Z,2311
2022-08-12T11:16:31.857Z,2306
2022-08-12T11:17:38.610Z,2306
2022-08-12T11:18:45.385Z,2317
2022-08-12T11:19:52.122Z,2328
2022-08-12T11:20:58.931Z,2351
2022-08-12T11:22:05.656Z,2351
2022-08-12T11:25:23.795Z,2351
2022-08-12T11:26:59.427Z,2396
2022-08-12T11:28:06.694Z,2413
2022-08-12T11:29:45.442Z,2418
2022-08-12T11:31:24.177Z,2396
2022-08-12T11:33:02.950Z,2373
2022-08-12T11:34:41.654Z,2379
2022-08-12T11:36:20.379Z,2413
2022-08-12T11:37:59.113Z,2452
2022-08-12T11:39:37.858Z,2475
2022-08-12T11:41:16.635Z,2503
2022-08-12T11:42:55.354Z,2508
2022-08-12T11:44:02.594Z,2542
2022-08-12T11:47:03.394Z,2548
2022-08-12T11:50:20.814Z,2565
2022-08-12T11:53:38.236Z,2531
2022-08-12T11:56:55.657Z,2548
2022-08-12T12:00:13.090Z,2565
2022-08-12T12:01:21.748Z,2587
2022-08-12T12:03:30.523Z,2559
2022-08-12T12:06:47.955Z,2514
2022-08-12T12:10:05.425Z,2553
2022-08-12T12:13:22.832Z,2536
2022-08-12T12:16:40.263Z,2553
2022-08-12T12:19:57.737Z,2531
2022-08-12T12:23:15.140Z,2520
2022-08-12T16:12:47.000Z,1440
2022-08-12T16:13:54.297Z,382
2022-08-12T16:15:33.030Z,376
2022-08-12T16:17:11.710Z,680
2022-08-12T16:18:50.470Z,320
2022-08-12T16:20:29.201Z,331
2022-08-12T16:22:07.956Z,320
2022-08-12T16:23:46.704Z,320
2022-08-12T16:25:25.472Z,331
2022-08-12T16:27:04.192Z,371
2022-08-12T16:28:42.936Z,466
2022-08-12T16:29:50.160Z,309
2022-08-12T16:30:57.469Z,433
2022-08-12T17:00:38.352Z,596
2022-08-12T17:01:45.597Z,258
2022-08-12T17:03:24.321Z,258
2022-08-12T17:05:03.080Z,253
2022-08-12T17:06:41.850Z,253
2022-08-12T17:08:20.597Z,247
2022-08-12T17:09:59.321Z,241
2022-08-12T17:11:38.102Z,241
2022-08-12T17:13:16.818Z,241
2022-08-12T17:14:55.567Z,236
2022-08-12T17:16:34.334Z,236
2022-08-12T17:17:41.575Z,230
2022-08-12T17:18:48.835Z,230
2022-08-12T17:20:27.568Z,230
2022-08-12T17:22:06.338Z,225
2022-08-12T17:23:45.052Z,225
2022-08-12T17:25:23.809Z,219
2022-08-12T17:27:02.574Z,213
2022-08-12T17:28:41.340Z,219
2022-08-12T17:30:20.034Z,208
2022-08-12T17:31:58.779Z,208
2022-08-12T17:33:37.539Z,208
2022-08-12T17:34:44.809Z,202
2022-08-12T17:35:52.044Z,196
2022-08-12T17:37:30.786Z,196
2022-08-12T17:39:09.536Z,196
2022-08-12T17:40:48.277Z,191
2022-08-12T17:42:26.990Z,185
2022-08-12T17:44:05.762Z,185
2022-08-12T17:45:44.501Z,180
2022-08-12T17:47:23.203Z,180
2022-08-12T17:49:01.986Z,180
2022-08-12T17:50:40.745Z,168
2022-08-12T17:51:48.002Z,168
2022-08-12T17:52:55.254Z,163
2022-08-12T17:54:34.021Z,168
2022-08-12T17:56:12.677Z,163
2022-08-12T17:57:51.438Z,157
2022-08-12T17:59:30.187Z,163
2022-08-12T18:01:08.936Z,151
2022-08-12T18:02:47.648Z,146
2022-08-12T18:04:26.383Z,146
2022-08-12T18:06:05.138Z,140
2022-08-12T18:07:43.886Z,140
2022-08-12T18:08:51.170Z,140
2022-08-12T18:09:58.441Z,135
2022-08-12T18:11:37.098Z,129
2022-08-12T18:13:15.842Z,123
2022-08-12T18:14:54.605Z,123
2022-08-12T18:16:33.319Z,112
2022-08-12T18:18:12.071Z,112
2022-08-12T18:19:50.801Z,106
2022-08-12T18:21:29.485Z,106
2022-08-12T18:23:08.232Z,101
2022-08-12T18:24:46.983Z,95
2022-08-12T18:25:54.204Z,90
2022-08-12T18:27:01.546Z,90
2022-08-12T18:28:40.273Z,84
2022-08-12T18:30:18.976Z,84
2022-08-12T18:31:57.697Z,73
2022-08-12T18:33:36.440Z,73
2022-08-12T18:35:15.142Z,67
2022-08-12T18:36:53.884Z,61
2022-08-12T18:38:32.601Z,61
2022-08-12T18:40:11.288Z,56
2022-08-12T18:41:49.998Z,50
2022-08-12T18:42:57.276Z,45
2022-08-12T18:44:04.610Z,45
2022-08-12T18:45:43.300Z,45
2022-08-12T18:47:22.058Z,39
2022-08-12T18:49:00.784Z,33
2022-08-12T18:50:39.522Z,33
2022-08-12T18:52:18.334Z,28
2022-08-12T18:53:57.004Z,0
2022-08-12T18:55:35.738Z,22
2022-08-12T18:57:14.500Z,16
2022-08-12T18:58:53.166Z,16
2022-08-12T19:00:00.436Z,16
2022-08-12T19:01:07.650Z,11
2022-08-12T19:02:46.364Z,11
2022-08-12T19:04:25.077Z,11
2022-08-12T19:06:03.813Z,5
2022-08-12T19:07:42.532Z,5
2022-08-12T19:09:21.306Z,5
2022-08-12T19:11:00.006Z,5
2022-08-12T19:12:38.765Z,0
2022-08-12T19:14:17.425Z,0
2022-08-12T19:15:56.182Z,0
2022-08-12T19:17:03.428Z,0
2022-08-12T19:18:10.667Z,0
2022-08-12T19:19:49.346Z,0
2022-08-12T19:21:28.054Z,0
2022-08-12T19:23:06.775Z,0
2022-08-12T19:24:45.471Z,0
2022-08-12T19:26:24.188Z,0
2022-08-12T19:28:02.927Z,0
2022-08-12T19:29:41.635Z,0
2022-08-12T19:31:20.378Z,0
2022-08-12T19:32:59.126Z,0
2022-08-12T19:34:06.336Z,0
2022-08-12T19:35:13.597Z,0
2022-08-12T19:36:52.341Z,0
2022-08-12T19:38:31.036Z,0
2022-08-12T19:40:09.774Z,0
2022-08-12T19:41:48.492Z,0
2022-08-12T19:43:27.250Z,0
2022-08-12T19:45:05.993Z,0
2022-08-12T19:46:44.699Z,0
2022-08-12T19:48:23.415Z,0
2022-08-12T19:50:02.190Z,0
2022-08-12T19:51:09.404Z,0
2022-08-12T19:52:16.624Z,0
2022-08-12T19:53:55.338Z,0
2022-08-12T19:55:34.083Z,0
2022-08-12T19:57:12.778Z,0
2022-08-12T19:58:51.544Z,0
2022-08-12T20:00:30.240Z,0
2022-08-12T20:02:08.961Z,0
2022-08-12T20:03:47.705Z,0
2022-08-12T20:05:26.427Z,0
2022-08-12T20:07:05.155Z,0
2022-08-12T20:08:12.404Z,0
2022-08-12T20:09:19.663Z,0
2022-08-12T20:10:58.395Z,0
2022-08-12T20:12:37.090Z,0
2022-08-12T20:14:15.818Z,0
2022-08-12T20:15:54.562Z,0
2022-08-12T20:17:33.263Z,0
2022-08-12T20:19:12.034Z,0
2022-08-12T20:20:50.749Z,0
2022-08-12T20:22:29.438Z,0
2022-08-12T20:24:08.174Z,0
2022-08-12T20:25:15.438Z,0
2022-08-12T20:26:22.679Z,0
2022-08-12T20:28:01.403Z,0
2022-08-12T20:29:40.111Z,0
2022-08-12T20:31:18.862Z,0
2022-08-12T20:32:57.613Z,0
2022-08-12T20:34:36.298Z,0
2022-08-12T20:36:15.071Z,0
2022-08-12T20:37:53.755Z,0
2022-08-12T20:39:32.476Z,0
2022-08-12T20:41:11.210Z,0
2022-08-12T20:42:18.441Z,0
2022-08-12T20:43:25.683Z,0
2022-08-12T20:45:04.434Z,0
2022-08-12T20:46:43.179Z,0
2022-08-12T20:48:21.876Z,0
2022-08-12T20:50:00.629Z,0
2022-08-12T20:51:39.343Z,0
2022-08-12T20:53:18.056Z,0
2022-08-12T20:54:56.830Z,0
2022-08-12T20:56:35.549Z,0
2022-08-12T20:58:14.234Z,0
2022-08-12T20:59:21.465Z,0
2022-08-12T21:00:28.731Z,0
2022-08-12T21:02:07.427Z,0
2022-08-12T21:03:46.183Z,0
2022-08-12T21:05:24.882Z,0
2022-08-12T21:07:03.638Z,0
2022-08-12T21:08:42.359Z,0
2022-08-12T21:10:21.100Z,0
2022-08-12T21:11:59.805Z,0
2022-08-12T21:13:38.495Z,0
2022-08-12T21:15:17.262Z,0
2022-08-12T21:16:24.518Z,0
2022-08-12T21:17:31.735Z,0
2022-08-12T21:19:10.492Z,0
2022-08-12T21:20:49.234Z,0
2022-08-12T21:22:27.945Z,0
2022-08-12T21:24:06.709Z,0
2022-08-12T21:25:45.454Z,0
2022-08-12T21:27:24.159Z,0
2022-08-12T21:29:02.925Z,0
2022-08-12T21:30:41.619Z,0
2022-08-12T21:32:20.331Z,0
2022-08-12T21:33:27.572Z,0
2022-08-12T21:34:34.828Z,0
2022-08-12T21:36:13.535Z,0
2022-08-12T21:37:52.258Z,0
2022-08-12T21:39:31.000Z,0
2022-08-12T21:41:09.773Z,0
2022-08-12T21:42:48.475Z,0
2022-08-12T21:44:27.179Z,0
2022-08-12T21:46:05.897Z,0
2022-08-12T21:47:44.609Z,0
2022-08-12T21:49:23.325Z,0
2022-08-12T21:50:30.616Z,0
2022-08-12T21:51:37.824Z,0
2022-08-12T21:53:16.563Z,0
2022-08-12T21:54:55.314Z,0
2022-08-12T21:56:34.077Z,0
2022-08-12T21:58:12.804Z,0
2022-08-12T21:59:51.548Z,0
2022-08-12T22:01:30.266Z,0
2022-08-12T22:03:08.994Z,0
2022-08-12T22:04:47.727Z,0
2022-08-12T22:06:26.444Z,0
2022-08-12T22:07:33.653Z,0
2022-08-12T22:08:40.895Z,0
2022-08-12T22:10:19.614Z,0
2022-08-12T22:11:58.393Z,0
2022-08-12T22:13:37.089Z,0
2022-08-12T22:15:15.833Z,0
2022-08-12T22:16:54.645Z,0
2022-08-12T22:18:33.357Z,0
2022-08-12T22:20:12.076Z,0
2022-08-12T22:21:50.847Z,0
2022-08-12T22:23:29.566Z,0
2022-08-12T22:24:36.837Z,0
2022-08-12T22:25:44.037Z,0
2022-08-12T22:27:22.816Z,0
2022-08-12T22:29:01.545Z,0
2022-08-12T22:30:40.318Z,0
2022-08-12T22:32:19.048Z,0
2022-08-12T22:33:57.794Z,0
2022-08-12T22:35:36.549Z,0
2022-08-12T22:37:15.311Z,0
2022-08-12T22:38:54.044Z,0
2022-08-12T22:40:32.832Z,0
2022-08-12T22:41:40.045Z,0
2022-08-12T22:42:47.253Z,0
2022-08-12T22:44:26.031Z,0
2022-08-12T22:46:03.868Z,0
2022-08-12T22:47:10.214Z,0
2022-08-12T22:48:16.564Z,0
2022-08-12T22:49:22.957Z,0
2022-08-12T22:50:29.354Z,0
2022-08-12T22:51:35.685Z,0
2022-08-12T22:52:42.054Z,0
2022-08-12T22:53:48.487Z,0
2022-08-12T22:54:54.800Z,0
2022-08-12T22:56:01.174Z,0
2022-08-12T22:57:07.584Z,0
2022-08-12T22:58:13.917Z,0
2022-08-12T22:59:20.293Z,0
2022-08-12T23:00:26.650Z,0
2022-08-12T23:01:33.036Z,0
2022-08-12T23:02:39.389Z,0
2022-08-12T23:03:45.759Z,0
2022-08-12T23:04:52.152Z,0
2022-08-12T23:05:58.557Z,0
2022-08-12T23:07:04.833Z,0
2022-08-12T23:08:11.167Z,0
2022-08-12T23:09:17.527Z,0
2022-08-12T23:10:23.823Z,0
2022-08-12T23:11:30.159Z,0
2022-08-12T23:12:36.466Z,0
2022-08-12T23:13:42.864Z,0
2022-08-12T23:14:49.240Z,0
2022-08-12T23:15:55.619Z,0
2022-08-12T23:17:02.021Z,0
2022-08-12T23:18:08.407Z,0
2022-08-12T23:19:14.757Z,0
2022-08-12T23:20:21.172Z,0
2022-08-12T23:21:27.523Z,0
2022-08-12T23:22:33.923Z,0
2022-08-12T23:23:40.305Z,0
2022-08-12T23:24:46.670Z,0
2022-08-12T23:25:53.052Z,0
2022-08-12T23:26:59.433Z,0
2022-08-12T23:28:05.948Z,0
2022-08-12T23:29:12.469Z,0
2022-08-12T23:30:18.956Z,0
2022-08-12T23:31:25.449Z,0
2022-08-12T23:32:31.953Z,0
2022-08-12T23:33:38.455Z,0
2022-08-12T23:34:44.960Z,0
2022-08-12T23:35:51.457Z,0
2022-08-12T23:36:57.953Z,0
2022-08-12T23:38:04.475Z,0
2022-08-12T23:39:10.945Z,0
2022-08-12T23:40:17.478Z,0
2022-08-12T23:41:23.951Z,0
2022-08-12T23:44:19.168Z,0
2022-08-12T23:45:25.892Z,0
2022-08-12T23:46:32.661Z,0